Aérodrome :
LOGIN :

S'inscrire | Disclaimer

   EN    FR    IT 

 










Légende :    VFR   VFR Marginal   IFR   IFR Intensif   IFR Très Intensif
Visi : 
Plafond : 
>= 8 km
>= 3000ft
5 à 8 km
1000 à 3000 ft
1500m à 5 km
500 à 1000 ft
800 à 1500m
200 à 500 ft
< 800m
< 200 ft
Symboles :   Orages  Brouillard  Fortes neiges  Fortes précipitations  Vent > 20 kt
SIGMETs :   Divers  Orages  Givrage  Turbulence  Onde Orograph.  Cendres Volcan.






- Altitude de l'aérodrome : 84 ft


LFBC - Cazaux

DERNIER METAR :
  • 100500Z AUTO 13003KT 9999 FEW037 OVC047 07/05 Q1030

METARs EXPIRÉS :
  • 100430Z AUTO 15003KT 9999 SCT032 OVC047 07/06 Q1030
  • 100400Z AUTO 11003KT 9999 SCT033 OVC048 07/06 Q1030
  • 100330Z AUTO 13002KT 9999 FEW019 BKN033 BKN040 08/06 Q1031
  • 100300Z AUTO 19002KT 9999 OVC034 08/06 Q1031
  • 100230Z AUTO 00000KT 9999 SCT036 BKN046 OVC054 07/06 Q1031

TAF TAF LFBC
Valide du 09 à 15h jusqu'au 10 à 15h UTC


091400Z 0915/1015 31020G30KT 9999 SCT030 BKN050
PROB40
TEMPO 0920/0922 4000 SHRA
BECMG 1000/1002 VRB02KT



MET'MAP, la Météo Aéronautique d'un coup d'oeil ! - Copyright ORBIFLY Décembre 2007 - Disclaimer

ORBIFLY MET'MAP TEAM :

Programmation & Développement : Alexandra Zaïnal
Sur une idée originale de : Baudouin d'Aumeries
Assistance à la programmation : Marc-Olivier Méhu
Soutien technique & logistique : Manuel Goepfert

Contact : metmap@orbifly.com




SOURCES & CREDITS :

   NOAA